Time;durP1;ratioP1;P1;durP2;ratioP2;P2;SDS_P1;SDS_P2;PMS_P1;PMS_P2;Temp;Humidity;BMP_temperature;BMP_pressure;BME280_temperature;BME280_humidity;BME280_pressure;Samples;Min_cycle;Max_cycle;Signal;HPM_P1;HPM_P2
2022/07/25 00:02:18;;;;;;;5.40;3.50;;;;;;;;;;4393819;32;20061;-64
2022/07/25 00:04:45;;;;;;;6.05;3.55;;;;;;;;;;4392296;32;20081;-65
2022/07/25 00:07:12;;;;;;;5.12;3.50;;;;;;;;;;4392291;32;20444;-64
2022/07/25 00:09:38;;;;;;;5.50;3.97;;;;;;;;;;4392311;32;20071;-64
2022/07/25 00:12:05;;;;;;;6.43;3.58;;;;;;;;;;4392385;32;20163;-64
2022/07/25 00:14:32;;;;;;;4.65;3.40;;;;;;;;;;4393447;32;20077;-64
2022/07/25 00:16:59;;;;;;;5.82;3.40;;;;;;;;;;4379483;32;20093;-64
2022/07/25 00:19:26;;;;;;;7.57;3.55;;;;;;;;;;4379116;32;20108;-65
2022/07/25 00:21:53;;;;;;;5.32;3.55;;;;;;;;;;4391784;32;20530;-64
2022/07/25 00:24:19;;;;;;;4.40;3.45;;;;;;;;;;4379965;32;20179;-64
2022/07/25 00:26:46;;;;;;;5.05;3.70;;;;;;;;;;4391822;32;20066;-64
2022/07/25 00:29:13;;;;;;;5.37;3.28;;;;;;;;;;4393413;32;20068;-64
2022/07/25 00:31:39;;;;;;;6.47;3.78;;;;;;;;;;4391626;32;20189;-64
2022/07/25 00:34:06;;;;;;;4.93;3.45;;;;;;;;;;4393741;32;20127;-64
2022/07/25 00:36:33;;;;;;;5.15;3.70;;;;;;;;;;4379484;32;20085;-64
2022/07/25 00:39:00;;;;;;;4.80;3.50;;;;;;;;;;4392962;32;20061;-64
2022/07/25 00:41:26;;;;;;;5.57;3.67;;;;;;;;;;4391727;32;20089;-64
2022/07/25 00:43:53;;;;;;;4.72;3.55;;;;;;;;;;4379534;32;20148;-64
2022/07/25 00:46:20;;;;;;;4.05;3.30;;;;;;;;;;4379028;32;20077;-64
2022/07/25 00:48:46;;;;;;;7.72;4.30;;;;;;;;;;4391631;32;20515;-64
2022/07/25 00:51:13;;;;;;;5.40;3.72;;;;;;;;;;4379224;32;20153;-65
2022/07/25 00:53:40;;;;;;;5.78;4.22;;;;;;;;;;4378717;32;20521;-63
2022/07/25 00:56:07;;;;;;;6.62;4.10;;;;;;;;;;4390778;32;20097;-65
2022/07/25 00:58:34;;;;;;;7.80;4.93;;;;;;;;;;4391484;32;20085;-64
2022/07/25 01:01:01;;;;;;;5.85;4.10;;;;;;;;;;4392704;32;20150;-64
2022/07/25 01:03:28;;;;;;;5.55;4.25;;;;;;;;;;4366163;32;20589;-64
2022/07/25 01:05:55;;;;;;;6.25;4.28;;;;;;;;;;4378718;32;20480;-64
2022/07/25 01:08:22;;;;;;;6.10;4.15;;;;;;;;;;4378978;32;20078;-65
2022/07/25 01:10:49;;;;;;;5.80;4.40;;;;;;;;;;4366347;32;20081;-64
2022/07/25 01:13:16;;;;;;;7.37;4.55;;;;;;;;;;4391111;32;20092;-62
2022/07/25 01:15:43;;;;;;;6.60;4.18;;;;;;;;;;4378632;32;20534;-65
2022/07/25 01:18:09;;;;;;;6.70;4.47;;;;;;;;;;4391414;32;20096;-64
2022/07/25 01:20:36;;;;;;;5.65;4.22;;;;;;;;;;4391250;32;20070;-64
2022/07/25 01:23:03;;;;;;;7.85;4.43;;;;;;;;;;4378676;32;20480;-64
2022/07/25 01:25:30;;;;;;;6.15;4.37;;;;;;;;;;4379148;32;20491;-63
2022/07/25 01:27:57;;;;;;;7.35;4.68;;;;;;;;;;4391030;32;20094;-65
2022/07/25 01:30:24;;;;;;;5.82;4.37;;;;;;;;;;4378471;32;20146;-64
2022/07/25 01:32:52;;;;;;;7.32;4.93;;;;;;;;;;4365780;32;20080;-64
2022/07/25 01:35:19;;;;;;;6.60;4.78;;;;;;;;;;4390888;32;20101;-64
2022/07/25 01:37:45;;;;;;;7.40;4.30;;;;;;;;;;4390749;32;20149;-64
2022/07/25 01:40:13;;;;;;;6.65;4.50;;;;;;;;;;4378329;32;20180;-65
2022/07/25 01:42:39;;;;;;;6.60;4.60;;;;;;;;;;4391361;32;20141;-64
2022/07/25 01:45:07;;;;;;;7.60;4.80;;;;;;;;;;4366189;32;20495;-64
2022/07/25 01:47:34;;;;;;;7.03;4.62;;;;;;;;;;4378157;32;20078;-63
2022/07/25 01:50:00;;;;;;;6.68;4.75;;;;;;;;;;4378307;32;20512;-65
2022/07/25 01:52:27;;;;;;;6.68;4.65;;;;;;;;;;4378165;32;20152;-64
2022/07/25 01:54:54;;;;;;;7.28;5.37;;;;;;;;;;4392294;32;20100;-64
2022/07/25 01:57:21;;;;;;;7.57;5.37;;;;;;;;;;4365761;32;20147;-64
2022/07/25 01:59:48;;;;;;;7.05;5.28;;;;;;;;;;4390617;32;20074;-64
2022/07/25 02:02:14;;;;;;;9.55;5.93;;;;;;;;;;4390566;32;20088;-65
2022/07/25 02:04:41;;;;;;;9.52;5.70;;;;;;;;;;4392040;32;20169;-63
2022/07/25 02:07:08;;;;;;;8.30;5.70;;;;;;;;;;4391837;32;20111;-64
2022/07/25 02:09:34;;;;;;;9.43;6.65;;;;;;;;;;4390285;32;20532;-65
2022/07/25 02:12:01;;;;;;;8.95;6.12;;;;;;;;;;4378045;32;20085;-64
2022/07/25 02:14:28;;;;;;;7.90;6.47;;;;;;;;;;4390592;32;20145;-64
2022/07/25 02:16:54;;;;;;;9.15;6.10;;;;;;;;;;4377920;32;20069;-64
2022/07/25 02:19:21;;;;;;;8.45;6.32;;;;;;;;;;4390391;32;20082;-65
2022/07/25 02:21:48;;;;;;;10.45;6.60;;;;;;;;;;4390410;32;20523;-64
2022/07/25 02:24:15;;;;;;;7.72;5.95;;;;;;;;;;4390333;32;20082;-65
2022/07/25 02:26:42;;;;;;;8.43;6.35;;;;;;;;;;4390298;32;20081;-65
2022/07/25 02:29:09;;;;;;;7.93;6.25;;;;;;;;;;4377637;32;20521;-63
2022/07/25 02:31:35;;;;;;;11.10;6.30;;;;;;;;;;4390724;32;20141;-63
2022/07/25 02:34:03;;;;;;;9.43;5.87;;;;;;;;;;4390149;32;20173;-64
2022/07/25 02:36:35;;;;;;;8.05;6.10;;;;;;;;;;4378093;32;20092;-64
2022/07/25 02:39:03;;;;;;;8.50;6.37;;;;;;;;;;4365579;32;20081;-64
2022/07/25 02:41:30;;;;;;;6.93;5.60;;;;;;;;;;4377574;32;20070;-65
2022/07/25 02:43:57;;;;;;;8.65;6.28;;;;;;;;;;4365365;32;20167;-64
2022/07/25 02:46:24;;;;;;;10.00;5.87;;;;;;;;;;4377518;32;20066;-64
2022/07/25 02:48:51;;;;;;;9.60;6.10;;;;;;;;;;4390677;32;20062;-64
2022/07/25 02:51:17;;;;;;;9.80;6.32;;;;;;;;;;4378023;32;20077;-64
2022/07/25 02:53:44;;;;;;;8.98;5.78;;;;;;;;;;4390234;32;20157;-64
2022/07/25 02:56:11;;;;;;;10.73;6.72;;;;;;;;;;4364943;32;20162;-64
2022/07/25 02:58:38;;;;;;;11.18;6.12;;;;;;;;;;4377366;32;20097;-64
2022/07/25 03:01:05;;;;;;;9.75;6.55;;;;;;;;;;4389868;32;20576;-64
2022/07/25 03:03:32;;;;;;;10.93;7.15;;;;;;;;;;4389960;32;20157;-64
2022/07/25 03:05:58;;;;;;;8.85;6.25;;;;;;;;;;4389568;32;20081;-64
2022/07/25 03:08:25;;;;;;;8.90;6.20;;;;;;;;;;4389971;32;20148;-64
2022/07/25 03:10:52;;;;;;;8.35;5.90;;;;;;;;;;4377693;32;20162;-64
2022/07/25 03:13:19;;;;;;;9.25;5.90;;;;;;;;;;4390126;32;20077;-64
2022/07/25 03:15:46;;;;;;;9.50;6.80;;;;;;;;;;4390215;32;20089;-65
2022/07/25 03:18:12;;;;;;;8.82;6.35;;;;;;;;;;4392096;32;20201;-64
2022/07/25 03:20:39;;;;;;;8.05;5.78;;;;;;;;;;4393094;32;20164;-64
2022/07/25 03:23:06;;;;;;;9.00;6.37;;;;;;;;;;4380228;32;20093;-64
2022/07/25 03:25:33;;;;;;;9.02;6.35;;;;;;;;;;4392697;32;20612;-65
2022/07/25 03:27:59;;;;;;;10.68;7.32;;;;;;;;;;4392979;32;20077;-64
2022/07/25 03:30:26;;;;;;;8.38;5.90;;;;;;;;;;4367708;32;20077;-64
2022/07/25 03:32:53;;;;;;;8.25;6.50;;;;;;;;;;4392423;32;20500;-64
2022/07/25 03:35:20;;;;;;;11.00;7.20;;;;;;;;;;4392394;32;20081;-64
2022/07/25 03:37:47;;;;;;;10.35;6.97;;;;;;;;;;4392704;32;20089;-64
2022/07/25 03:40:14;;;;;;;9.70;6.87;;;;;;;;;;4392530;32;20141;-64
2022/07/25 03:42:41;;;;;;;10.70;7.90;;;;;;;;;;4380101;32;20155;-64
2022/07/25 03:45:08;;;;;;;11.07;7.28;;;;;;;;;;4379964;32;20074;-64
2022/07/25 03:47:35;;;;;;;10.95;7.18;;;;;;;;;;4392571;32;20086;-64
2022/07/25 03:50:02;;;;;;;9.63;7.37;;;;;;;;;;4379765;32;20150;-64
2022/07/25 03:52:28;;;;;;;8.93;5.85;;;;;;;;;;4392509;32;20447;-64
2022/07/25 03:54:55;;;;;;;9.07;6.20;;;;;;;;;;4380232;32;20188;-64
2022/07/25 03:57:22;;;;;;;11.32;8.00;;;;;;;;;;4392187;32;20078;-64
2022/07/25 03:59:48;;;;;;;9.18;6.57;;;;;;;;;;4392374;32;20176;-64
2022/07/25 04:02:15;;;;;;;9.75;7.30;;;;;;;;;;4392579;32;20155;-65
2022/07/25 04:04:42;;;;;;;9.55;6.55;;;;;;;;;;4392438;32;20081;-64
2022/07/25 04:07:08;;;;;;;11.57;8.05;;;;;;;;;;4392191;32;20067;-64
2022/07/25 04:09:35;;;;;;;10.65;8.55;;;;;;;;;;4379613;32;20085;-64
2022/07/25 04:12:03;;;;;;;11.30;9.38;;;;;;;;;;4380430;32;20081;-64
2022/07/25 04:14:29;;;;;;;11.35;8.77;;;;;;;;;;4379581;32;20166;-65
2022/07/25 04:16:56;;;;;;;13.95;9.13;;;;;;;;;;4392032;32;20071;-64
2022/07/25 04:19:23;;;;;;;12.23;8.95;;;;;;;;;;4393914;32;20088;-64
2022/07/25 04:21:49;;;;;;;13.80;8.23;;;;;;;;;;4392793;32;20074;-64
2022/07/25 04:24:16;;;;;;;10.05;7.68;;;;;;;;;;4392167;32;20110;-64
2022/07/25 04:26:43;;;;;;;11.68;9.15;;;;;;;;;;4391874;32;20140;-64
2022/07/25 04:29:10;;;;;;;10.15;7.57;;;;;;;;;;4379178;32;20089;-64
2022/07/25 04:31:37;;;;;;;12.77;8.32;;;;;;;;;;4390644;32;20547;-63
2022/07/25 04:34:03;;;;;;;10.68;7.35;;;;;;;;;;4379353;32;20073;-63
2022/07/25 04:36:30;;;;;;;14.57;8.30;;;;;;;;;;4391815;32;20085;-64
2022/07/25 04:38:57;;;;;;;12.68;8.35;;;;;;;;;;4393228;32;20093;-64
2022/07/25 04:41:23;;;;;;;17.05;10.27;;;;;;;;;;4393493;32;20090;-64
2022/07/25 04:43:50;;;;;;;11.98;8.82;;;;;;;;;;4392930;32;20059;-64
2022/07/25 04:46:21;;;;;;;13.27;9.23;;;;;;;;;;4379048;32;20138;-64
2022/07/25 04:48:48;;;;;;;13.60;9.80;;;;;;;;;;4378862;32;20451;-64
2022/07/25 04:51:15;;;;;;;12.63;9.57;;;;;;;;;;4391882;32;20108;-64
2022/07/25 04:53:42;;;;;;;11.32;8.52;;;;;;;;;;4366564;32;20089;-64
2022/07/25 04:56:09;;;;;;;13.60;8.90;;;;;;;;;;4393025;32;20601;-64
2022/07/25 04:58:36;;;;;;;14.57;9.68;;;;;;;;;;4391380;32;20061;-64
2022/07/25 05:01:02;;;;;;;13.25;9.93;;;;;;;;;;4378833;32;20081;-64
2022/07/25 05:03:29;;;;;;;13.07;9.30;;;;;;;;;;4391508;32;20157;-64
2022/07/25 05:05:56;;;;;;;11.77;8.82;;;;;;;;;;4378694;32;20521;-64
2022/07/25 05:08:22;;;;;;;11.20;8.23;;;;;;;;;;4391516;32;20073;-64
2022/07/25 05:10:49;;;;;;;11.88;8.85;;;;;;;;;;4378921;32;20101;-65
2022/07/25 05:13:16;;;;;;;13.93;9.07;;;;;;;;;;4378959;32;20105;-63
2022/07/25 05:15:43;;;;;;;10.18;8.45;;;;;;;;;;4391734;32;20158;-64
2022/07/25 05:18:10;;;;;;;11.12;8.68;;;;;;;;;;4392648;32;20077;-64
2022/07/25 05:20:36;;;;;;;11.82;9.25;;;;;;;;;;4392948;32;20143;-64
2022/07/25 05:23:03;;;;;;;11.63;7.53;;;;;;;;;;4392317;32;20524;-64
2022/07/25 05:25:30;;;;;;;10.82;7.50;;;;;;;;;;4390810;32;20091;-65
2022/07/25 05:27:57;;;;;;;11.80;7.75;;;;;;;;;;4390819;32;20076;-65
2022/07/25 05:30:24;;;;;;;12.27;7.87;;;;;;;;;;4391257;32;20504;-64
2022/07/25 05:32:51;;;;;;;12.27;8.85;;;;;;;;;;4390910;32;20090;-65
2022/07/25 05:35:18;;;;;;;10.00;8.38;;;;;;;;;;4378660;32;20108;-64
2022/07/25 05:37:45;;;;;;;15.77;9.32;;;;;;;;;;4365833;32;20084;-64
2022/07/25 05:40:12;;;;;;;15.68;9.63;;;;;;;;;;4390726;32;20069;-65
2022/07/25 05:42:39;;;;;;;13.57;8.50;;;;;;;;;;4378026;32;20070;-64
2022/07/25 05:45:06;;;;;;;10.77;7.87;;;;;;;;;;4365765;32;20508;-64
2022/07/25 05:47:33;;;;;;;13.30;8.38;;;;;;;;;;4365823;32;20152;-64
2022/07/25 05:50:00;;;;;;;11.75;7.78;;;;;;;;;;4366140;32;20101;-63
2022/07/25 05:52:27;;;;;;;10.27;7.78;;;;;;;;;;4392093;32;20448;-63
2022/07/25 05:54:54;;;;;;;11.48;8.90;;;;;;;;;;4377902;32;20178;-63
2022/07/25 05:57:20;;;;;;;11.88;8.57;;;;;;;;;;4390570;32;20254;-64
2022/07/25 05:59:47;;;;;;;11.55;8.57;;;;;;;;;;4390926;32;20073;-64
2022/07/25 06:02:14;;;;;;;9.70;7.62;;;;;;;;;;4365608;32;20086;-64
2022/07/25 06:04:41;;;;;;;10.77;7.87;;;;;;;;;;4365585;32;20088;-64
2022/07/25 06:07:08;;;;;;;11.05;8.52;;;;;;;;;;4377647;32;20082;-64
2022/07/25 06:09:34;;;;;;;11.23;8.13;;;;;;;;;;4377879;32;20555;-63
2022/07/25 06:12:01;;;;;;;12.13;9.18;;;;;;;;;;4378368;32;20089;-64
2022/07/25 06:14:29;;;;;;;12.18;9.52;;;;;;;;;;4390417;32;20089;-64
2022/07/25 06:16:56;;;;;;;10.80;8.60;;;;;;;;;;4390085;32;20073;-63
2022/07/25 06:19:23;;;;;;;11.52;8.90;;;;;;;;;;4378282;32;20094;-64
2022/07/25 06:21:49;;;;;;;11.48;8.98;;;;;;;;;;4377610;32;20516;-64
2022/07/25 06:24:16;;;;;;;10.95;8.55;;;;;;;;;;4378224;32;20166;-64
2022/07/25 06:26:43;;;;;;;11.27;8.48;;;;;;;;;;4389892;32;20096;-62
2022/07/25 06:29:10;;;;;;;13.23;9.45;;;;;;;;;;4377930;32;20082;-64
2022/07/25 06:31:37;;;;;;;12.65;8.35;;;;;;;;;;4389835;32;20078;-64
2022/07/25 06:34:04;;;;;;;13.40;8.70;;;;;;;;;;4377291;32;20077;-64
2022/07/25 06:36:30;;;;;;;13.43;9.63;;;;;;;;;;4389663;32;20084;-64
2022/07/25 06:38:57;;;;;;;14.07;8.90;;;;;;;;;;4377935;32;20070;-63
2022/07/25 06:41:24;;;;;;;13.85;9.35;;;;;;;;;;4377543;32;20145;-64
2022/07/25 06:43:50;;;;;;;12.00;9.30;;;;;;;;;;4391050;32;20539;-64
2022/07/25 06:46:17;;;;;;;11.73;9.25;;;;;;;;;;4377114;32;20504;-64
2022/07/25 06:48:44;;;;;;;12.70;8.70;;;;;;;;;;4389843;32;20476;-66
2022/07/25 06:51:11;;;;;;;10.95;8.55;;;;;;;;;;4377190;32;20449;-65
2022/07/25 06:53:37;;;;;;;9.80;8.05;;;;;;;;;;4377067;32;20066;-62
2022/07/25 06:56:04;;;;;;;15.20;9.10;;;;;;;;;;4377178;32;20157;-64
2022/07/25 06:58:31;;;;;;;10.75;8.30;;;;;;;;;;4377131;32;20164;-64
2022/07/25 07:00:59;;;;;;;10.07;7.78;;;;;;;;;;4377037;32;20460;-64
2022/07/25 07:03:26;;;;;;;11.57;8.30;;;;;;;;;;4377160;32;20090;-66
2022/07/25 07:05:53;;;;;;;10.90;7.95;;;;;;;;;;4391289;32;20096;-67
2022/07/25 07:08:20;;;;;;;10.70;7.75;;;;;;;;;;4377720;32;20169;-64
2022/07/25 07:10:47;;;;;;;10.68;8.43;;;;;;;;;;4389838;32;20154;-64
2022/07/25 07:13:17;;;;;;;12.07;8.77;;;;;;;;;;4389525;32;20514;-65
2022/07/25 07:15:48;;;;;;;11.57;8.90;;;;;;;;;;4390862;32;20069;-64
2022/07/25 07:18:15;;;;;;;10.57;7.90;;;;;;;;;;4389630;32;20085;-64
2022/07/25 07:20:42;;;;;;;12.90;8.68;;;;;;;;;;4390402;32;20084;-65
2022/07/25 07:23:09;;;;;;;12.73;8.50;;;;;;;;;;4365108;32;20074;-66
2022/07/25 07:25:39;;;;;;;10.23;8.63;;;;;;;;;;4377271;32;20078;-64
2022/07/25 07:28:06;;;;;;;9.90;8.20;;;;;;;;;;4389577;32;20158;-65
2022/07/25 07:30:33;;;;;;;9.93;8.02;;;;;;;;;;4364249;32;20547;-65
2022/07/25 07:33:00;;;;;;;12.70;8.18;;;;;;;;;;4377094;32;20093;-64
2022/07/25 07:35:27;;;;;;;10.13;7.37;;;;;;;;;;4377157;32;20147;-64
2022/07/25 07:37:54;;;;;;;8.75;7.43;;;;;;;;;;4391018;32;20070;-64
2022/07/25 07:40:21;;;;;;;10.27;7.65;;;;;;;;;;4389358;32;20139;-63
2022/07/25 07:42:49;;;;;;;10.02;7.72;;;;;;;;;;4389614;32;20059;-64
2022/07/25 07:45:19;;;;;;;10.73;8.10;;;;;;;;;;4377072;32;20089;-66
2022/07/25 07:47:47;;;;;;;10.23;7.18;;;;;;;;;;4377636;32;20074;-65
2022/07/25 07:50:15;;;;;;;11.18;8.05;;;;;;;;;;4389325;32;20067;-64
2022/07/25 07:52:42;;;;;;;12.55;7.95;;;;;;;;;;4389711;32;20137;-64
2022/07/25 07:57:55;;;;;;;8.70;6.97;;;;;;;;;;4379004;32;20069;-63
2022/07/25 08:00:22;;;;;;;12.13;7.75;;;;;;;;;;4376602;32;20104;-64
2022/07/25 08:02:53;;;;;;;10.50;8.18;;;;;;;;;;4389634;32;20082;-65
2022/07/25 08:05:22;;;;;;;13.65;7.82;;;;;;;;;;4390508;32;20089;-65
2022/07/25 08:07:50;;;;;;;9.10;7.50;;;;;;;;;;4392334;32;20078;-65
2022/07/25 08:10:22;;;;;;;10.52;7.78;;;;;;;;;;4392386;32;20135;-66
2022/07/25 08:12:49;;;;;;;13.27;8.27;;;;;;;;;;4392175;32;20078;-65
2022/07/25 08:15:17;;;;;;;9.60;8.18;;;;;;;;;;4367033;32;20082;-64
2022/07/25 08:17:44;;;;;;;11.50;8.95;;;;;;;;;;4391641;32;20537;-65
2022/07/25 08:20:11;;;;;;;9.77;8.43;;;;;;;;;;4393110;32;20539;-65
2022/07/25 08:22:48;;;;;;;10.05;8.10;;;;;;;;;;4391853;32;20081;-65
2022/07/25 08:25:19;;;;;;;11.85;7.82;;;;;;;;;;4391950;32;20523;-66
2022/07/25 08:27:47;;;;;;;14.70;9.43;;;;;;;;;;4379523;32;20093;-66
2022/07/25 08:30:15;;;;;;;10.50;8.40;;;;;;;;;;4379405;32;20211;-66
2022/07/25 08:32:55;;;;;;;12.55;9.20;;;;;;;;;;4379380;32;20097;-66
2022/07/25 08:35:23;;;;;;;10.18;8.55;;;;;;;;;;4391685;32;20121;-66
2022/07/25 08:37:50;;;;;;;10.77;8.40;;;;;;;;;;4391392;32;20162;-66
2022/07/25 08:40:20;;;;;;;10.85;8.52;;;;;;;;;;4391744;32;20090;-66
2022/07/25 08:42:47;;;;;;;10.80;8.93;;;;;;;;;;4367332;32;20488;-66
2022/07/25 08:45:16;;;;;;;12.30;9.02;;;;;;;;;;4366537;32;20082;-65
2022/07/25 08:47:47;;;;;;;10.88;8.93;;;;;;;;;;4379024;32;20170;-65
2022/07/25 08:50:16;;;;;;;11.55;9.55;;;;;;;;;;4379489;32;20531;-65
2022/07/25 08:52:44;;;;;;;11.35;9.07;;;;;;;;;;4393106;32;20166;-64
2022/07/25 08:55:14;;;;;;;13.05;9.40;;;;;;;;;;4366586;32;20098;-65
2022/07/25 08:57:44;;;;;;;11.18;8.80;;;;;;;;;;4391568;32;20173;-65
2022/07/25 09:00:18;;;;;;;12.50;8.32;;;;;;;;;;4391220;32;20246;-65
2022/07/25 09:03:01;;;;;;;11.77;8.40;;;;;;;;;;4378658;32;20090;-65
2022/07/25 09:05:29;;;;;;;14.02;10.75;;;;;;;;;;4392294;32;20477;-64
2022/07/25 09:07:56;;;;;;;16.58;12.02;;;;;;;;;;4366492;32;20073;-65
2022/07/25 09:10:25;;;;;;;14.75;11.00;;;;;;;;;;4378786;32;20190;-64
2022/07/25 09:12:57;;;;;;;13.82;11.90;;;;;;;;;;4366189;32;20155;-64
2022/07/25 09:15:28;;;;;;;13.90;10.57;;;;;;;;;;4366228;32;20074;-65
2022/07/25 09:17:56;;;;;;;15.65;10.27;;;;;;;;;;4377916;32;20166;-64
2022/07/25 09:20:23;;;;;;;13.60;10.07;;;;;;;;;;4378300;32;20078;-64
2022/07/25 09:22:50;;;;;;;16.35;10.35;;;;;;;;;;4378478;32;20621;-64
2022/07/25 09:25:25;;;;;;;17.52;10.85;;;;;;;;;;4378445;32;20138;-64
2022/07/25 09:27:52;;;;;;;18.35;11.00;;;;;;;;;;4378336;32;20088;-65
2022/07/25 09:30:19;;;;;;;12.27;9.27;;;;;;;;;;4390915;32;20077;-65
2022/07/25 09:32:47;;;;;;;13.70;10.27;;;;;;;;;;4378078;32;20102;-65
2022/07/25 09:35:14;;;;;;;14.57;10.75;;;;;;;;;;4365750;32;20142;-65
2022/07/25 09:37:41;;;;;;;16.55;10.50;;;;;;;;;;4378269;32;20086;-64
2022/07/25 09:40:14;;;;;;;13.73;9.77;;;;;;;;;;4390862;32;20077;-65
2022/07/25 09:42:44;;;;;;;14.00;9.95;;;;;;;;;;4390956;32;20077;-64
2022/07/25 09:45:13;;;;;;;13.48;10.05;;;;;;;;;;4366559;32;20202;-64
2022/07/25 09:47:52;;;;;;;16.12;9.98;;;;;;;;;;4390865;32;20182;-64
2022/07/25 09:50:20;;;;;;;12.45;9.32;;;;;;;;;;4390447;32;20108;-65
2022/07/25 09:52:47;;;;;;;12.95;9.65;;;;;;;;;;4378096;32;20085;-65
2022/07/25 09:55:15;;;;;;;15.32;11.50;;;;;;;;;;4378038;32;20102;-65
2022/07/25 09:57:43;;;;;;;19.17;12.23;;;;;;;;;;4390434;32;20077;-66
2022/07/25 10:00:11;;;;;;;22.35;13.57;;;;;;;;;;4390653;32;20154;-65
2022/07/25 10:02:53;;;;;;;18.10;13.70;;;;;;;;;;4390154;32;20096;-65
2022/07/25 10:05:47;;;;;;;14.68;11.43;;;;;;;;;;4391140;32;20166;-66
2022/07/25 10:08:14;;;;;;;14.00;9.95;;;;;;;;;;4391744;32;20177;-66
2022/07/25 10:10:42;;;;;;;14.75;9.57;;;;;;;;;;4377758;32;20077;-67
2022/07/25 10:13:11;;;;;;;16.92;10.00;;;;;;;;;;4365232;32;20082;-65
2022/07/25 10:15:51;;;;;;;13.45;9.23;;;;;;;;;;4378326;32;20130;-66
2022/07/25 10:18:20;;;;;;;11.18;8.57;;;;;;;;;;4378118;32;20093;-65
2022/07/25 10:20:49;;;;;;;14.32;9.98;;;;;;;;;;4377709;32;20070;-64
2022/07/25 10:23:27;;;;;;;14.50;9.07;;;;;;;;;;4366708;32;20141;-65
2022/07/25 10:26:20;;;;;;;11.18;7.87;;;;;;;;;;4379092;32;20530;-65
2022/07/25 10:28:48;;;;;;;10.18;8.32;;;;;;;;;;4362308;32;20151;-65
2022/07/25 10:31:45;;;;;;;10.43;8.18;;;;;;;;;;4377528;32;20496;-64
2022/07/25 10:34:13;;;;;;;9.52;8.10;;;;;;;;;;4364783;32;20162;-65
2022/07/25 10:36:53;;;;;;;9.13;7.37;;;;;;;;;;4377295;32;20505;-65
2022/07/25 10:39:21;;;;;;;10.50;8.60;;;;;;;;;;4377690;32;20573;-65
2022/07/25 10:42:01;;;;;;;9.88;7.78;;;;;;;;;;4389858;32;20062;-65
2022/07/25 10:44:42;;;;;;;11.02;7.82;;;;;;;;;;4377736;32;20086;-64
2022/07/25 10:47:11;;;;;;;10.52;7.37;;;;;;;;;;4365078;32;20077;-63
2022/07/25 10:49:44;;;;;;;14.30;7.78;;;;;;;;;;4390137;32;20073;-65
2022/07/25 10:52:18;;;;;;;11.45;9.30;;;;;;;;;;4378019;32;20513;-65
2022/07/25 10:54:56;;;;;;;9.77;7.62;;;;;;;;;;4377653;32;20525;-64
2022/07/25 10:57:23;;;;;;;12.65;8.20;;;;;;;;;;4377112;32;20091;-64
2022/07/25 10:59:50;;;;;;;9.23;7.60;;;;;;;;;;4377261;32;20062;-64
2022/07/25 11:02:18;;;;;;;11.05;7.72;;;;;;;;;;4377318;32;20069;-65
2022/07/25 11:04:57;;;;;;;14.65;8.98;;;;;;;;;;4377538;32;20073;-65
2022/07/25 11:07:23;;;;;;;10.20;8.43;;;;;;;;;;4377125;32;20106;-65
2022/07/25 11:09:58;;;;;;;11.63;8.23;;;;;;;;;;4389722;32;20058;-64
2022/07/25 11:12:26;;;;;;;12.23;8.50;;;;;;;;;;4377554;32;20076;-65
2022/07/25 11:15:00;;;;;;;11.32;7.75;;;;;;;;;;4377285;32;20074;-64
2022/07/25 11:17:28;;;;;;;10.23;6.87;;;;;;;;;;4377270;32;20085;-64
2022/07/25 11:19:56;;;;;;;13.23;9.23;;;;;;;;;;4389673;32;20450;-64
2022/07/25 11:22:23;;;;;;;10.23;7.82;;;;;;;;;;4389703;32;20500;-63
2022/07/25 11:24:50;;;;;;;31.67;7.40;;;;;;;;;;4364816;32;20070;-64
2022/07/25 11:27:23;;;;;;;35.10;6.22;;;;;;;;;;4377482;32;20148;-64
2022/07/25 11:29:51;;;;;;;10.70;4.97;;;;;;;;;;4364727;32;20081;-65
2022/07/25 11:32:18;;;;;;;4.80;3.85;;;;;;;;;;4376713;32;20078;-64
2022/07/25 11:34:51;;;;;;;6.03;3.70;;;;;;;;;;4364888;32;20516;-64
2022/07/25 11:37:18;;;;;;;7.00;5.07;;;;;;;;;;4378131;32;20070;-64
2022/07/25 11:39:46;;;;;;;6.90;4.60;;;;;;;;;;4365575;32;20089;-64
2022/07/25 11:42:19;;;;;;;8.07;5.30;;;;;;;;;;4379979;32;20093;-65
2022/07/25 11:44:54;;;;;;;8.80;6.12;;;;;;;;;;4380201;32;20521;-65
2022/07/25 11:47:32;;;;;;;8.48;5.68;;;;;;;;;;4380263;32;20543;-64
2022/07/25 11:50:04;;;;;;;5.43;4.72;;;;;;;;;;4380282;32;20072;-64
2022/07/25 11:52:35;;;;;;;9.10;5.22;;;;;;;;;;4379846;32;20461;-64
2022/07/25 11:55:03;;;;;;;8.77;5.15;;;;;;;;;;4380236;32;20142;-65
2022/07/25 11:57:34;;;;;;;7.90;5.53;;;;;;;;;;4379764;32;20172;-65
2022/07/25 12:00:28;;;;;;;7.35;5.50;;;;;;;;;;4367444;32;20073;-65
2022/07/25 12:03:07;;;;;;;7.50;5.47;;;;;;;;;;4392192;32;20081;-64
2022/07/25 12:05:34;;;;;;;6.47;5.03;;;;;;;;;;4392332;32;20070;-64
2022/07/25 12:08:09;;;;;;;6.37;5.12;;;;;;;;;;4393813;32;20093;-64
2022/07/25 12:10:36;;;;;;;5.55;4.85;;;;;;;;;;4379754;32;20085;-65
2022/07/25 12:13:05;;;;;;;8.85;5.22;;;;;;;;;;4379697;32;20105;-64
2022/07/25 12:15:41;;;;;;;7.68;5.57;;;;;;;;;;4392128;32;20250;-64
2022/07/25 12:18:11;;;;;;;6.70;5.22;;;;;;;;;;4379826;32;20452;-64
2022/07/25 12:20:42;;;;;;;7.87;5.70;;;;;;;;;;4392481;32;20089;-64
2022/07/25 12:23:11;;;;;;;8.15;5.95;;;;;;;;;;4379896;32;20097;-65
2022/07/25 12:25:39;;;;;;;7.97;5.47;;;;;;;;;;4379606;32;20073;-66
2022/07/25 12:28:07;;;;;;;8.30;5.25;;;;;;;;;;4379483;32;20084;-64
2022/07/25 12:30:34;;;;;;;6.60;5.18;;;;;;;;;;4379479;32;20580;-65
2022/07/25 12:33:02;;;;;;;6.60;4.87;;;;;;;;;;4379029;32;20089;-65
2022/07/25 12:35:28;;;;;;;7.22;5.03;;;;;;;;;;4379245;32;20089;-64
2022/07/25 12:37:55;;;;;;;6.93;5.07;;;;;;;;;;4391695;32;20088;-65
2022/07/25 12:40:23;;;;;;;5.70;4.60;;;;;;;;;;4393224;32;20086;-64
2022/07/25 12:42:50;;;;;;;6.93;4.72;;;;;;;;;;4379099;32;20169;-63
2022/07/25 12:45:17;;;;;;;7.03;4.47;;;;;;;;;;4367342;32;20070;-64
2022/07/25 12:47:45;;;;;;;6.62;4.65;;;;;;;;;;4379087;32;20153;-63
2022/07/25 12:50:12;;;;;;;6.47;4.90;;;;;;;;;;4379985;32;20061;-65
2022/07/25 12:52:39;;;;;;;6.00;4.50;;;;;;;;;;4365955;32;20082;-64
2022/07/25 12:55:07;;;;;;;7.62;4.53;;;;;;;;;;4379257;32;20142;-64
2022/07/25 12:57:36;;;;;;;5.60;4.18;;;;;;;;;;4378575;32;20612;-65
2022/07/25 13:00:06;;;;;;;7.78;4.37;;;;;;;;;;4367223;32;20093;-65
2022/07/25 13:02:33;;;;;;;7.75;4.55;;;;;;;;;;4379604;32;20157;-64
2022/07/25 13:05:00;;;;;;;5.30;4.20;;;;;;;;;;4378970;32;20081;-65
2022/07/25 13:07:27;;;;;;;6.85;4.85;;;;;;;;;;4366528;32;20154;-65
2022/07/25 13:09:53;;;;;;;5.32;4.50;;;;;;;;;;4391929;32;20592;-64
2022/07/25 13:12:22;;;;;;;4.80;3.85;;;;;;;;;;4367941;32;20086;-64
2022/07/25 13:14:50;;;;;;;6.10;4.10;;;;;;;;;;4381543;32;20069;-62
2022/07/25 13:17:17;;;;;;;4.93;4.00;;;;;;;;;;4392498;32;20085;-64
2022/07/25 13:19:43;;;;;;;5.32;4.22;;;;;;;;;;4393227;32;20538;-65
2022/07/25 13:22:10;;;;;;;6.10;4.32;;;;;;;;;;4379032;32;20077;-65
2022/07/25 13:24:38;;;;;;;7.50;4.30;;;;;;;;;;4391652;32;20078;-64
2022/07/25 13:27:08;;;;;;;7.18;4.80;;;;;;;;;;4367967;32;20148;-65
2022/07/25 13:29:35;;;;;;;5.03;4.22;;;;;;;;;;4381285;32;20086;-64
2022/07/25 13:32:02;;;;;;;4.55;3.90;;;;;;;;;;4380486;32;20081;-64
2022/07/25 13:34:29;;;;;;;5.68;4.55;;;;;;;;;;4380647;32;20117;-65
2022/07/25 13:36:57;;;;;;;8.30;5.07;;;;;;;;;;4382852;32;20068;-64
2022/07/25 13:39:23;;;;;;;6.00;4.47;;;;;;;;;;4393622;32;20144;-64
2022/07/25 13:41:51;;;;;;;6.65;4.72;;;;;;;;;;4381213;32;20070;-65
2022/07/25 13:44:18;;;;;;;6.00;4.60;;;;;;;;;;4367633;32;20520;-64
2022/07/25 13:46:48;;;;;;;7.70;4.32;;;;;;;;;;4380122;32;20073;-65
2022/07/25 13:49:16;;;;;;;6.30;4.60;;;;;;;;;;4366789;32;20143;-64
2022/07/25 13:51:44;;;;;;;6.75;4.70;;;;;;;;;;4392312;32;20109;-65
2022/07/25 13:54:11;;;;;;;8.07;5.22;;;;;;;;;;4365925;32;20086;-65
2022/07/25 13:56:40;;;;;;;10.55;5.40;;;;;;;;;;4365373;32;20165;-64
2022/07/25 13:59:07;;;;;;;7.43;4.60;;;;;;;;;;4390613;32;20138;-65
2022/07/25 14:01:34;;;;;;;6.25;5.15;;;;;;;;;;4365599;32;20139;-66
2022/07/25 14:04:00;;;;;;;8.90;5.35;;;;;;;;;;4390847;32;20153;-64
2022/07/25 14:06:27;;;;;;;7.55;5.80;;;;;;;;;;4377354;32;20471;-63
2022/07/25 14:08:54;;;;;;;7.62;6.12;;;;;;;;;;4391009;32;20157;-64
2022/07/25 14:11:21;;;;;;;7.40;5.37;;;;;;;;;;4365714;32;20073;-64
2022/07/25 14:13:48;;;;;;;7.87;5.50;;;;;;;;;;4365485;32;20106;-64
2022/07/25 14:16:17;;;;;;;7.07;5.50;;;;;;;;;;4377756;32;20160;-65
2022/07/25 14:18:45;;;;;;;8.68;4.95;;;;;;;;;;4390220;32;20086;-63
2022/07/25 14:21:11;;;;;;;9.18;5.43;;;;;;;;;;4365444;32;20121;-64
2022/07/25 14:23:39;;;;;;;6.20;4.60;;;;;;;;;;4365257;32;20464;-65
2022/07/25 14:26:05;;;;;;;7.18;5.78;;;;;;;;;;4377646;32;20069;-65
2022/07/25 14:28:32;;;;;;;7.50;5.60;;;;;;;;;;4390247;32;20069;-66
2022/07/25 14:30:59;;;;;;;11.40;7.45;;;;;;;;;;4390230;32;20082;-64
2022/07/25 14:33:26;;;;;;;6.40;4.68;;;;;;;;;;4377177;32;20163;-65
2022/07/25 14:35:53;;;;;;;7.22;5.28;;;;;;;;;;4377762;32;20066;-65
2022/07/25 14:38:20;;;;;;;10.85;6.03;;;;;;;;;;4365019;32;20062;-63
2022/07/25 14:40:47;;;;;;;8.15;5.85;;;;;;;;;;4377345;32;20491;-65
2022/07/25 14:43:14;;;;;;;7.93;5.62;;;;;;;;;;4377564;32;20089;-64
2022/07/25 14:45:41;;;;;;;7.72;6.12;;;;;;;;;;4365280;32;20105;-65